Flight Track Log - Related Links

Times and Time Zones

All times are in EST time to prevent confusion due to time zone crossing. See the SKW4580 flight status page for this flight to view local times or setup timezone preferences in your user account.

Time Position Orientation Groundspeed Altitude Reporting Facility
EST Latitude Longitude Course Direction KTS MPH feet Rate Location/Type
Fri 12:34:24 PM 41.0006 -85.2417 37° Northeast 249 287 4,000  Level Chicago Center
Fri 12:35:26 PM 41.0400 -85.1625 57° Northeast 268 308 6,700 2,468 Climbing Chicago Center
Fri 12:36:00 PM 41.2595 -84.8739 37° Northeast  Level FlightAware Approximate
Fri 12:36:28 PM 41.0722 -85.0625 67° East 283 326 9,100  Level Chicago Center
Fri 12:37:00 PM 41.3273 -84.7895 37° Northeast  Level FlightAware Approximate
Fri 12:37:30 PM 41.1456 -85.0028 32° Northeast 309 356 11,100  Level Chicago Center
Fri 12:38:00 PM 41.4025 -84.7144 37° Northeast  Level FlightAware Approximate
Fri 12:38:31 PM 41.2411 -84.9053 37° Northeast 350 403 11,100  Level Chicago Center
Fri 12:39:00 PM 41.4776 -84.6391 37° Northeast  Level FlightAware Approximate
Fri 12:39:33 PM 41.3219 -84.8197 38° Northeast 369 425 11,100  Level Chicago Center
Fri 12:40:35 PM 41.4019 -84.7328 39° Northeast 372 428 11,100  Level Chicago Center
Fri 12:41:37 PM 41.4842 -84.6442 39° Northeast 379 436 11,100  Level Chicago Center
Fri 12:42:39 PM 41.5647 -84.5558 39° Northeast 379 436 11,100  Level Chicago Center
Fri 12:43:41 PM 41.6628 -84.4486 39° Northeast 380 437 11,100 -48 Level Chicago Center
Fri 12:44:44 PM 41.7153 -84.3258 60° Northeast 386 444 11,000 -91 Descending Cleveland Center
Fri 12:44:47 PM 41.7192 -84.3119 69° East 385 443 11,000  Level Cleveland Center
Fri 12:45:24 PM 41.7511 -84.2358 61° Northeast 381 438 11,000  Level Cleveland Center
Fri 12:45:46 PM 41.7678 -84.1878 65° Northeast 382 440 11,000  Level Cleveland Center
Fri 12:46:25 PM 41.7997 -84.1086 62° Northeast 381 438 11,000  Level Cleveland Center
Fri 12:46:48 PM 41.8175 -84.0633 62° Northeast 381 438 11,000  Level Cleveland Center
Fri 12:47:19 PM 41.8508 -83.9986 55° Northeast 378 435 11,000  Level Cleveland Center
Fri 12:47:49 PM 41.8817 -83.9536 47° Northeast 379 436 11,000  Level Cleveland Center
Fri 12:48:14 PM 41.9172 -83.9075 44° Northeast 373 429 11,000  Level Cleveland Center
Fri 12:48:51 PM 41.9556 -83.8564 45° Northeast 377 434 11,000  Level Cleveland Center
Fri 12:49:15 PM 41.9903 -83.8089 45° Northeast 374 430 11,000  Level Cleveland Center
Fri 12:49:53 PM 42.0272 -83.7558 47° Northeast 372 428 11,000  Level Cleveland Center
Fri 12:50:22 PM 42.0711 -83.6942 46° Northeast 376 433 11,000  Level Cleveland Center
Fri 12:50:55 PM 42.1011 -83.6572 42° Northeast 374 430 11,000  Level Cleveland Center
Fri 12:51:23 PM 42.1511 -83.6100 35° Northeast 364 419 11,000 -97 Level Cleveland Center
Fri 12:51:57 PM 42.1908 -83.5683 38° Northeast 352 405 10,900  Descending Cleveland Center
Fri 12:52:24 PM 42.2219 -83.5386 35° Northeast 270 311 11,000 -194 Climbing Cleveland Center
Fri 12:52:59 PM 42.2533 -83.5111 33° Northeast 275 316 10,700 -1,182 Descending Cleveland Center
Fri 12:53:30 PM 42.2928 -83.4894 22° Northeast 264 304 9,700 -1,742 Descending Cleveland Center
Fri 12:54:01 PM 42.3208 -83.4722 24° Northeast 263 303 8,900 -2,066 Descending Cleveland Center
Fri 12:54:31 PM 42.3586 -83.4536 20° North 251 289 7,600 -2,129 Descending Cleveland Center
Fri 12:55:03 PM 42.3875 -83.4358 24° Northeast 258 297 6,700 -1,770 Descending Cleveland Center
Fri 12:55:32 PM 42.4050 -83.3953 60° Northeast 244 281 5,800 -1,935 Descending Cleveland Center
Fri 12:56:05 PM 42.3953 -83.3464 105° East 247 284 4,700 -1,791 Descending Cleveland Center
Fri 12:56:39 PM 42.3792 -83.2983 114° Southeast 221 254 3,800 -1,452 Descending Cleveland Center
Fri 12:57:07 PM 42.3597 -83.2894 161° South 227 261 3,200 -1,200 Descending Cleveland Center
Fri 12:57:34 PM 42.3289 -83.2969 190° South 198 228 2,700 -871 Descending Cleveland Center
Fri 12:58:09 PM 42.3075 -83.3053 196° South 202 232 2,300 -537 Descending Cleveland Center
Fri 12:58:41 PM 42.2847 -83.3247 212° Southwest 151 174 2,100 -492 Descending Cleveland Center
Fri 12:59:10 PM 42.2714 -83.3342 208° Southwest 169 194 1,800 -787 Descending Cleveland Center
Fri 12:59:42 PM 42.2494 -83.3478 205° Southwest 133 153 1,300 -774 Descending Cleveland Center
Fri 01:00:12 PM 42.2386 -83.3564 210° Southwest 145 167 1,000 -600 Descending Cleveland Center

Login

Don't have an account? Register now (free) for customized features, flight alerts, and more!